Time;durP1;ratioP1;P1;durP2;ratioP2;P2;SDS_P1;SDS_P2;PMS_P1;PMS_P2;Temp;Humidity;BMP_temperature;BMP_pressure;BME280_temperature;BME280_humidity;BME280_pressure;Samples;Min_cycle;Max_cycle;Signal;HPM_P1;HPM_P2
2023/04/13 00:00:07;;;;;;;;;2.00;2.00;;;;;20.33;53.65;99760.25;110234;1250;22337;-39
2023/04/13 00:02:55;;;;;;;;;2.00;2.00;;;;;20.33;53.46;99755.19;110274;1264;22354;-40
2023/04/13 00:05:22;;;;;;;;;2.00;2.00;;;;;20.32;53.60;99753.89;110219;1251;19577;-40
2023/04/13 00:07:50;;;;;;;;;2.00;2.00;;;;;20.32;53.56;99746.23;110235;1251;21453;-40
2023/04/13 00:10:19;;;;;;;;;2.00;2.00;;;;;20.33;53.49;99745.80;110238;1264;20706;-39
2023/04/13 00:12:47;;;;;;;;;2.00;1.50;;;;;20.32;53.54;99739.73;110238;1264;19001;-39
2023/04/13 00:15:15;;;;;;;;;2.00;2.00;;;;;20.33;53.51;99737.05;110294;1251;18662;-39
2023/04/13 00:17:43;;;;;;;;;2.00;2.00;;;;;20.32;53.61;99735.67;110220;1251;22071;-39
2023/04/13 00:20:12;;;;;;;;;4.00;4.00;;;;;20.32;53.44;99736.17;110230;1264;18442;-40
2023/04/13 00:22:39;;;;;;;;;5.00;4.00;;;;;20.33;53.49;99735.98;110220;1264;20013;-39
2023/04/13 00:25:07;;;;;;;;;4.00;2.00;;;;;20.33;53.52;99744.61;110219;1250;20764;-40
2023/04/13 00:27:36;;;;;;;;;2.00;2.00;;;;;20.32;53.54;99738.98;110222;1264;19512;-40
2023/04/13 00:30:04;;;;;;;;;1.00;1.00;;;;;20.32;53.45;99744.22;110208;1251;20008;-40
2023/04/13 00:32:31;;;;;;;;;2.00;2.00;;;;;20.32;53.39;99749.49;110195;1250;20974;-41
2023/04/13 00:34:59;;;;;;;;;2.00;2.00;;;;;20.32;53.66;99751.70;110198;1251;19663;-40
2023/04/13 00:37:28;;;;;;;;;2.00;1.00;;;;;20.32;53.52;99752.30;110165;1264;19920;-40
2023/04/13 00:39:55;;;;;;;;;2.00;2.00;;;;;20.32;53.46;99751.33;110202;1264;19315;-40
2023/04/13 00:42:22;;;;;;;;;4.00;2.00;;;;;20.32;53.37;99749.66;110171;1264;19542;-40
2023/04/13 00:44:50;;;;;;;;;1.00;1.00;;;;;20.32;53.40;99752.80;110087;1264;21331;-39
2023/04/13 00:47:18;;;;;;;;;2.00;2.00;;;;;20.32;53.46;99760.00;110154;1251;20656;-39
2023/04/13 00:49:45;;;;;;;;;4.00;4.00;;;;;20.32;53.54;99760.71;110194;1251;19548;-39
2023/04/13 00:52:12;;;;;;;;;2.00;2.00;;;;;20.32;53.42;99754.39;110202;1251;20023;-40
2023/04/13 00:54:40;;;;;;;;;4.00;2.00;;;;;20.32;53.48;99754.39;110155;1264;22013;-39
2023/04/13 00:57:07;;;;;;;;;2.00;2.00;;;;;20.33;53.29;99762.30;110196;1251;18414;-39
2023/04/13 00:59:35;;;;;;;;;1.50;1.50;;;;;20.32;53.44;99766.02;110151;1264;19963;-39
2023/04/13 01:02:04;;;;;;;;;2.00;2.00;;;;;20.32;53.40;99764.18;110123;1264;19361;-39
2023/04/13 01:04:32;;;;;;;;;2.00;2.00;;;;;20.32;53.50;99762.09;110241;1250;21720;-40
2023/04/13 01:07:00;;;;;;;;;4.00;2.00;;;;;20.32;53.50;99758.03;110175;1264;18597;-39
2023/04/13 01:09:27;;;;;;;;;2.00;2.00;;;;;20.32;53.47;99757.52;110186;1249;19381;-39
2023/04/13 01:11:55;;;;;;;;;2.00;2.00;;;;;20.32;53.57;99762.43;110190;1251;19593;-41
2023/04/13 01:14:23;;;;;;;;;2.00;2.00;;;;;20.31;53.43;99761.71;110179;1264;21534;-40
2023/04/13 01:16:50;;;;;;;;;1.00;1.00;;;;;20.32;53.47;99761.13;110188;1250;19341;-40
2023/04/13 01:19:18;;;;;;;;;1.00;1.00;;;;;20.32;53.31;99759.36;110196;1264;20807;-40
2023/04/13 01:21:45;;;;;;;;;1.00;1.00;;;;;20.32;53.46;99760.79;110205;1264;22142;-39
2023/04/13 01:24:15;;;;;;;;;1.00;1.00;;;;;20.31;53.47;99758.33;110173;1251;20813;-40
2023/04/13 01:26:44;;;;;;;;;3.00;2.00;;;;;20.31;53.52;99754.14;110077;1264;19586;-38
2023/04/13 01:29:13;;;;;;;;;2.00;2.00;;;;;20.32;53.40;99756.77;110237;1264;18613;-40
2023/04/13 01:31:40;;;;;;;;;2.00;2.00;;;;;20.32;53.44;99756.81;110213;1264;19328;-40
2023/04/13 01:34:08;;;;;;;;;2.00;2.00;;;;;20.31;53.47;99759.41;110180;1264;22213;-40
2023/04/13 01:36:36;;;;;;;;;4.00;2.00;;;;;20.31;53.47;99749.23;110193;1264;19977;-40
2023/04/13 01:39:04;;;;;;;;;2.00;1.00;;;;;20.31;53.36;99744.17;110177;1264;19345;-40
2023/04/13 01:41:32;;;;;;;;;2.00;2.00;;;;;20.31;53.30;99736.92;110201;1249;22700;-40
2023/04/13 01:43:59;;;;;;;;;2.00;2.00;;;;;20.31;53.32;99738.23;110220;1250;18616;-39
2023/04/13 01:46:26;;;;;;;;;2.00;2.00;;;;;20.32;53.23;99744.26;110177;1264;19718;-39
2023/04/13 01:48:54;;;;;;;;;2.00;2.00;;;;;20.32;53.35;99745.55;110193;1264;19570;-40
2023/04/13 01:51:23;;;;;;;;;1.00;1.00;;;;;20.32;53.31;99743.67;110195;1264;19951;-40
2023/04/13 01:53:50;;;;;;;;;4.00;4.00;;;;;20.31;53.29;99735.80;110161;1251;20868;-40
2023/04/13 01:56:18;;;;;;;;;2.00;2.00;;;;;20.31;53.50;99736.80;110197;1251;19597;-40
2023/04/13 01:58:46;;;;;;;;;2.00;2.00;;;;;20.32;53.28;99747.15;110244;1251;20039;-40
2023/04/13 02:01:14;;;;;;;;;2.00;2.00;;;;;20.31;53.35;99750.86;110228;1250;20693;-40
2023/04/13 02:03:44;;;;;;;;;2.00;2.00;;;;;20.31;53.35;99753.64;110230;1251;22426;-40
2023/04/13 02:06:11;;;;;;;;;2.00;2.00;;;;;20.32;53.29;99748.48;110241;1250;19971;-40
2023/04/13 02:08:39;;;;;;;;;2.00;2.00;;;;;20.31;53.49;99745.84;110208;1264;19838;-40
2023/04/13 02:11:06;;;;;;;;;2.00;2.00;;;;;20.31;53.38;99748.90;110217;1256;18425;-40
2023/04/13 02:13:34;;;;;;;;;1.00;1.00;;;;;20.31;53.27;99747.10;110199;1251;21269;-40
2023/04/13 02:16:01;;;;;;;;;1.00;1.00;;;;;20.32;53.33;99745.52;110218;1251;19395;-40
2023/04/13 02:18:29;;;;;;;;;2.00;2.00;;;;;20.32;53.53;99743.16;110278;1251;19600;-40
2023/04/13 02:20:57;;;;;;;;;2.00;2.00;;;;;20.32;53.38;99747.48;110183;1264;23000;-40
2023/04/13 02:23:24;;;;;;;;;2.00;2.00;;;;;20.32;53.29;99747.86;110211;1251;20728;-40
2023/04/13 02:25:52;;;;;;;;;2.00;2.00;;;;;20.32;53.35;99754.55;110215;1265;19102;-40
2023/04/13 02:28:19;;;;;;;;;2.00;2.00;;;;;20.31;53.24;99747.81;110196;1251;18570;-39
2023/04/13 02:30:47;;;;;;;;;3.33;2.00;;;;;20.32;53.35;99747.35;110215;1264;19710;-40
2023/04/13 02:33:14;;;;;;;;;2.00;2.00;;;;;20.32;53.33;99749.28;110193;1264;19520;-39
2023/04/13 02:35:41;;;;;;;;;1.00;1.00;;;;;20.31;53.17;99746.52;110168;1264;21407;-40
2023/04/13 02:38:10;;;;;;;;;1.50;1.00;;;;;20.31;53.31;99746.55;110213;1251;21006;-40
2023/04/13 02:40:38;;;;;;;;;4.00;2.67;;;;;20.31;53.30;99743.46;110253;1264;22222;-39
2023/04/13 02:43:05;;;;;;;;;2.00;2.00;;;;;20.31;53.28;99746.89;110187;1264;23332;-40
2023/04/13 02:45:33;;;;;;;;;3.00;2.00;;;;;20.31;53.37;99748.73;110200;1264;20738;-40
2023/04/13 02:48:00;;;;;;;;;4.00;2.00;;;;;20.31;53.10;99750.70;110208;1251;19636;-39
2023/04/13 02:50:28;;;;;;;;;1.50;1.50;;;;;20.30;53.15;99752.09;110231;1251;20232;-39
2023/04/13 02:52:55;;;;;;;;;2.00;1.00;;;;;20.30;53.22;99755.35;110276;1250;22650;-40
2023/04/13 02:55:23;;;;;;;;;1.50;1.50;;;;;20.31;53.23;99762.72;110238;1264;20784;-40
2023/04/13 02:57:50;;;;;;;;;2.00;2.00;;;;;20.31;53.30;99771.55;110223;1264;20045;-40
2023/04/13 03:00:18;;;;;;;;;2.00;2.00;;;;;20.31;53.19;99773.36;110195;1264;19347;-41
2023/04/13 03:02:45;;;;;;;;;2.00;2.00;;;;;20.30;53.15;99769.87;110229;1264;18447;-40
2023/04/13 03:05:13;;;;;;;;;2.00;2.00;;;;;20.30;53.17;99768.78;110223;1264;21589;-39
2023/04/13 03:07:41;;;;;;;;;4.00;4.00;;;;;20.31;53.19;99765.60;110318;1264;19378;-39
2023/04/13 03:10:09;;;;;;;;;1.50;1.50;;;;;20.31;53.19;99766.27;110234;1264;23026;-39
2023/04/13 03:12:37;;;;;;;;;2.00;2.00;;;;;20.32;53.26;99775.61;110235;1264;18871;-40
2023/04/13 03:15:07;;;;;;;;;2.00;2.00;;;;;20.31;53.09;99778.83;110158;1265;22597;-40
2023/04/13 03:17:34;;;;;;;;;1.00;1.00;;;;;20.31;53.18;99776.70;110201;1250;18398;-39
2023/04/13 03:20:08;;;;;;;;;2.00;2.00;;;;;20.31;53.10;99779.04;110205;1264;18615;-39
2023/04/13 03:22:35;;;;;;;;;2.00;2.00;;;;;20.31;53.15;99779.58;110173;1260;22415;-39
2023/04/13 03:25:03;;;;;;;;;2.00;2.00;;;;;20.29;53.18;99780.00;110219;1264;18740;-39
2023/04/13 03:27:30;;;;;;;;;2.00;2.00;;;;;20.31;53.24;99783.56;110216;1257;22280;-39
2023/04/13 03:29:58;;;;;;;;;1.50;1.50;;;;;20.32;53.29;99782.56;110224;1264;20934;-38
2023/04/13 03:32:26;;;;;;;;;4.00;2.00;;;;;20.31;52.97;99786.79;110224;1251;19640;-39
2023/04/13 03:34:54;;;;;;;;;1.00;1.00;;;;;20.31;53.09;99781.55;110200;1264;18819;-39
2023/04/13 03:37:21;;;;;;;;;2.00;2.00;;;;;20.32;53.21;99781.27;110217;1251;19397;-39
2023/04/13 03:39:49;;;;;;;;;4.00;2.00;;;;;20.31;53.15;99780.46;110226;1264;22581;-40
2023/04/13 03:42:16;;;;;;;;;2.00;2.00;;;;;20.31;53.02;99780.97;110261;1264;19870;-39
2023/04/13 03:44:44;;;;;;;;;2.00;2.00;;;;;20.31;53.21;99767.61;110230;1251;21959;-37
2023/04/13 03:47:11;;;;;;;;;2.00;2.00;;;;;20.31;53.23;99765.27;110225;1251;19508;-38
2023/04/13 03:49:39;;;;;;;;;2.00;2.00;;;;;20.31;53.23;99760.04;110185;1265;20084;-39
2023/04/13 03:52:06;;;;;;;;;2.00;1.50;;;;;20.31;53.17;99755.42;110225;1251;20775;-39
2023/04/13 03:54:34;;;;;;;;;1.00;1.00;;;;;20.31;53.14;99761.25;110173;1264;19362;-40
2023/04/13 03:57:03;;;;;;;;;2.00;2.00;;;;;20.31;53.12;99760.24;110212;1251;19961;-40
2023/04/13 03:59:31;;;;;;;;;1.00;1.00;;;;;20.31;53.15;99764.14;110204;1260;22773;-40
2023/04/13 04:01:58;;;;;;;;;4.00;3.00;;;;;20.30;53.13;99767.52;110178;1264;19841;-39
2023/04/13 04:04:25;;;;;;;;;2.00;2.00;;;;;20.30;53.14;99770.59;110156;1264;22750;-40
2023/04/13 04:06:53;;;;;;;;;2.00;2.00;;;;;20.30;53.13;99775.15;110223;1250;22726;-39
2023/04/13 04:09:20;;;;;;;;;2.00;2.00;;;;;20.30;53.37;99777.28;110181;1264;23366;-40
2023/04/13 04:11:48;;;;;;;;;2.00;1.00;;;;;20.30;53.06;99781.27;110197;1264;19987;-39
2023/04/13 04:14:15;;;;;;;;;2.00;2.00;;;;;20.31;53.10;99778.88;110218;1264;19368;-39
2023/04/13 04:16:43;;;;;;;;;2.00;2.00;;;;;20.31;53.30;99784.48;110091;1264;18424;-40
2023/04/13 04:19:10;;;;;;;;;4.00;2.00;;;;;20.30;53.19;99782.05;110169;1264;18651;-40
2023/04/13 04:21:43;;;;;;;;;1.00;1.00;;;;;20.31;53.09;99785.23;110167;1264;19346;-39
2023/04/13 04:24:21;;;;;;;;;2.00;2.00;;;;;20.30;53.06;99782.93;110175;1264;22245;-39
2023/04/13 04:26:49;;;;;;;;;2.00;2.00;;;;;20.30;53.05;99782.39;110208;1264;19972;-40
2023/04/13 04:29:20;;;;;;;;;2.00;2.00;;;;;20.30;53.14;99783.70;110257;1251;23249;-40
2023/04/13 04:31:52;;;;;;;;;2.00;1.50;;;;;20.31;53.10;99784.69;110191;1264;22193;-40
2023/04/13 04:34:19;;;;;;;;;2.00;2.00;;;;;20.30;53.05;99784.35;110195;1250;18616;-39
2023/04/13 04:36:49;;;;;;;;;2.00;2.00;;;;;20.31;53.00;99787.08;110186;1264;21322;-40
2023/04/13 04:39:20;;;;;;;;;2.00;2.00;;;;;20.30;53.00;99787.29;110196;1250;18688;-40
2023/04/13 04:41:48;;;;;;;;;4.00;4.00;;;;;20.31;53.02;99786.70;110239;1264;19962;-39
2023/04/13 04:44:16;;;;;;;;;1.00;1.00;;;;;20.30;52.96;99786.98;110175;1264;21300;-40
2023/04/13 04:46:44;;;;;;;;;2.00;2.00;;;;;20.30;52.96;99788.20;110241;1250;22050;-40
2023/04/13 04:49:11;;;;;;;;;2.00;2.00;;;;;20.30;52.87;99787.49;110201;1249;20099;-40
2023/04/13 04:51:39;;;;;;;;;4.00;2.00;;;;;20.30;52.99;99785.20;110120;1264;20741;-40
2023/04/13 04:54:06;;;;;;;;;4.00;2.00;;;;;20.31;53.05;99785.73;110194;1264;18355;-40
2023/04/13 04:56:34;;;;;;;;;4.00;2.00;;;;;20.31;53.00;99780.30;110174;1264;18533;-40
2023/04/13 04:59:02;;;;;;;;;3.00;3.00;;;;;20.30;52.84;99778.63;110190;1251;21102;-40
2023/04/13 05:01:29;;;;;;;;;4.00;2.00;;;;;20.32;52.91;99774.70;110203;1250;19547;-40
2023/04/13 05:03:57;;;;;;;;;2.00;2.00;;;;;20.37;53.19;99777.84;110234;1251;20259;-40
2023/04/13 05:06:24;;;;;;;;;3.00;2.00;;;;;20.38;53.19;99778.60;110179;1250;21761;-39
2023/04/13 05:08:51;;;;;;;;;2.00;2.00;;;;;20.41;53.44;99774.33;110225;1264;19123;-40
2023/04/13 05:11:19;;;;;;;;;2.00;2.00;;;;;20.42;53.41;99774.45;110246;1264;19893;-40
2023/04/13 05:13:47;;;;;;;;;1.00;1.00;;;;;20.44;53.70;99776.04;110243;1251;20776;-39
2023/04/13 05:16:14;;;;;;;;;2.00;2.00;;;;;20.47;54.15;99777.64;110229;1251;19620;-40
2023/04/13 05:18:41;;;;;;;;;2.00;2.00;;;;;20.49;54.21;99774.61;110179;1251;22020;-41
2023/04/13 05:21:09;;;;;;;;;3.00;3.00;;;;;20.50;54.17;99772.36;110229;1264;20833;-40
2023/04/13 05:23:37;;;;;;;;;4.00;4.00;;;;;20.51;54.14;99771.34;110181;1257;22303;-39
2023/04/13 05:26:04;;;;;;;;;4.00;4.00;;;;;20.51;54.10;99777.71;110181;1251;20034;-38
2023/04/13 05:28:33;;;;;;;;;2.00;2.00;;;;;20.50;53.93;99777.59;110187;1250;20673;-38
2023/04/13 05:31:00;;;;;;;;;2.00;2.00;;;;;20.51;53.95;99777.34;110231;1251;22206;-38
2023/04/13 05:33:28;;;;;;;;;2.00;2.00;;;;;20.50;54.31;99778.13;110255;1251;20460;-38
2023/04/13 05:35:55;;;;;;;;;2.00;2.00;;;;;20.52;53.95;99779.95;110210;1251;20820;-39
2023/04/13 05:38:23;;;;;;;;;5.00;5.00;;;;;20.53;53.84;99783.65;110222;1264;19572;-39
2023/04/13 05:40:51;;;;;;;;;4.00;4.00;;;;;20.53;54.02;99784.83;110239;1251;20139;-39
2023/04/13 05:43:18;;;;;;;;;2.67;2.67;;;;;20.53;54.05;99786.88;110233;1264;19245;-39
2023/04/13 05:45:46;;;;;;;;;4.00;2.00;;;;;20.54;54.02;99787.67;110211;1264;18378;-39
2023/04/13 05:48:13;;;;;;;;;2.00;2.00;;;;;20.55;54.02;99784.48;110200;1251;20164;-38
2023/04/13 05:50:42;;;;;;;;;4.50;4.00;;;;;20.58;54.10;99790.52;110215;1264;19493;-39
2023/04/13 05:53:10;;;;;;;;;2.00;2.00;;;;;20.58;54.03;99788.33;110227;1251;19675;-40
2023/04/13 05:55:37;;;;;;;;;3.00;3.00;;;;;20.60;54.13;99789.35;110157;1251;22395;-39
2023/04/13 05:58:05;;;;;;;;;4.00;2.00;;;;;20.61;53.79;99788.98;110151;1264;20653;-40
2023/04/13 06:00:33;;;;;;;;;4.00;4.00;;;;;20.67;54.07;99789.13;110187;1264;18396;-39
2023/04/13 06:03:01;;;;;;;;;2.00;2.00;;;;;20.71;54.02;99791.44;110192;1264;19963;-39
2023/04/13 06:05:28;;;;;;;;;2.67;2.67;;;;;20.71;53.88;99790.35;110195;1264;20639;-40
2023/04/13 06:07:56;;;;;;;;;2.00;2.00;;;;;20.72;53.86;99789.10;110278;1264;18312;-38
2023/04/13 06:10:23;;;;;;;;;3.00;3.00;;;;;20.70;53.80;99786.83;110195;1258;19907;-38
2023/04/13 06:12:52;;;;;;;;;2.00;2.00;;;;;20.68;53.86;99790.77;110180;1251;20790;-38
2023/04/13 06:15:19;;;;;;;;;2.00;2.00;;;;;20.68;53.85;99792.45;110191;1264;18556;-38
2023/04/13 06:17:46;;;;;;;;;1.00;1.00;;;;;20.68;53.72;99792.91;110205;1264;18782;-38
2023/04/13 06:20:15;;;;;;;;;5.00;4.00;;;;;20.70;53.89;99790.13;110183;1266;22414;-39
2023/04/13 06:22:42;;;;;;;;;2.00;2.00;;;;;20.73;53.56;99784.32;110225;1264;18437;-38
2023/04/13 06:25:10;;;;;;;;;5.00;5.00;;;;;20.74;53.58;99784.33;110205;1264;19964;-38
2023/04/13 06:27:38;;;;;;;;;4.50;4.00;;;;;20.76;53.58;99782.51;110216;1264;19706;-38
2023/04/13 06:30:05;;;;;;;;;2.00;2.00;;;;;20.78;53.37;99785.44;110206;1264;18417;-39
2023/04/13 06:32:33;;;;;;;;;4.00;2.00;;;;;20.79;53.46;99785.32;110215;1250;18622;-38
2023/04/13 06:35:00;;;;;;;;;4.00;4.00;;;;;20.82;53.39;99785.34;110205;1264;19364;-38
2023/04/13 06:37:29;;;;;;;;;4.00;4.00;;;;;20.84;53.28;99786.14;110212;1264;18397;-38
2023/04/13 06:39:56;;;;;;;;;2.00;2.00;;;;;20.86;53.11;99782.68;110235;1251;22949;-39
2023/04/13 06:42:24;;;;;;;;;5.00;4.00;;;;;20.87;53.17;99783.81;110191;1264;19378;-39
2023/04/13 06:44:51;;;;;;;;;2.00;2.00;;;;;20.90;53.20;99787.20;110219;1250;19975;-39
2023/04/13 06:47:19;;;;;;;;;3.33;2.67;;;;;20.91;53.11;99782.54;110266;1264;19981;-39
2023/04/13 06:49:47;;;;;;;;;4.00;4.00;;;;;20.92;52.88;99781.09;110232;1250;23089;-38
2023/04/13 06:52:14;;;;;;;;;2.00;2.00;;;;;20.92;52.81;99778.31;110217;1250;22301;-39
2023/04/13 06:54:42;;;;;;;;;4.00;4.00;;;;;20.93;52.81;99781.01;110208;1264;18633;-40
2023/04/13 06:57:09;;;;;;;;;4.33;4.00;;;;;20.92;52.79;99780.37;110213;1251;22545;-39
2023/04/13 06:59:36;;;;;;;;;5.00;5.00;;;;;20.88;52.55;99777.97;110216;1264;18405;-40
2023/04/13 07:02:04;;;;;;;;;5.00;5.00;;;;;20.84;52.76;99773.45;110204;1251;22888;-40
2023/04/13 07:04:31;;;;;;;;;7.00;5.00;;;;;20.78;52.46;99773.13;110218;1251;20874;-40
2023/04/13 07:06:59;;;;;;;;;9.00;8.00;;;;;20.73;51.92;99773.73;110216;1264;18456;-39
2023/04/13 07:09:26;;;;;;;;;10.00;10.00;;;;;20.71;51.83;99777.73;110196;1264;18648;-39
2023/04/13 07:11:54;;;;;;;;;7.00;7.00;;;;;20.68;51.78;99784.53;110216;1251;20709;-40
2023/04/13 07:14:21;;;;;;;;;9.00;9.00;;;;;20.67;51.85;99784.20;110199;1264;22745;-39
2023/04/13 07:16:48;;;;;;;;;14.00;11.00;;;;;20.69;51.73;99785.95;110205;1264;19965;-40
2023/04/13 07:19:19;;;;;;;;;10.00;8.00;;;;;20.72;51.25;99791.39;110254;1264;19338;-39
2023/04/13 07:21:46;;;;;;;;;10.00;8.00;;;;;20.73;51.00;99789.17;110225;1251;23124;-40
2023/04/13 07:24:14;;;;;;;;;12.00;12.00;;;;;20.73;50.77;99784.98;110250;1251;19962;-40
2023/04/13 07:26:41;;;;;;;;;11.00;10.00;;;;;20.75;50.16;99783.30;110273;1251;20826;-40
2023/04/13 07:29:12;;;;;;;;;12.00;10.50;;;;;20.76;49.89;99784.27;110233;1251;21248;-39
2023/04/13 07:31:39;;;;;;;;;17.00;13.00;;;;;20.76;49.59;99785.31;110314;1250;22758;-40
2023/04/13 07:34:07;;;;;;;;;15.00;14.00;;;;;20.75;49.62;99792.39;110194;1264;19349;-40
2023/04/13 07:36:35;;;;;;;;;17.00;14.00;;;;;20.75;49.52;99795.69;110208;1249;21298;-40
2023/04/13 07:39:02;;;;;;;;;14.33;14.33;;;;;20.73;49.25;99795.38;110242;1264;20082;-40
2023/04/13 07:41:30;;;;;;;;;17.00;15.00;;;;;20.68;48.94;99788.89;110206;1251;19343;-41
2023/04/13 07:43:57;;;;;;;;;16.00;14.00;;;;;20.66;48.05;99787.30;110194;1264;18888;-40
2023/04/13 07:46:25;;;;;;;;;14.50;14.50;;;;;20.62;47.24;99789.44;110191;1264;20920;-40
2023/04/13 07:48:53;;;;;;;;;17.00;14.00;;;;;20.56;46.55;99790.11;110168;1251;22400;-41
2023/04/13 07:51:20;;;;;;;;;18.00;17.50;;;;;20.53;46.01;99793.36;110198;1264;18558;-39
2023/04/13 07:53:48;;;;;;;;;18.00;15.00;;;;;20.50;45.70;99785.75;110257;1264;20287;-38
2023/04/13 07:56:15;;;;;;;;;13.50;12.00;;;;;20.56;45.94;99791.58;110210;1249;20760;-40
2023/04/13 07:58:43;;;;;;;;;16.00;15.00;;;;;20.61;45.96;99791.66;110169;1264;22747;-41
2023/04/13 08:01:10;;;;;;;;;18.00;17.00;;;;;20.60;45.62;99795.76;110178;1250;21467;-40
2023/04/13 08:03:38;;;;;;;;;17.00;16.00;;;;;20.57;45.54;99793.06;110209;1251;20708;-40
2023/04/13 08:06:05;;;;;;;;;21.00;18.00;;;;;20.53;45.05;99797.72;110213;1251;22238;-40
2023/04/13 08:08:33;;;;;;;;;18.00;18.00;;;;;20.37;44.16;99798.69;110233;1264;18688;-40
2023/04/13 08:11:01;;;;;;;;;20.00;19.00;;;;;20.42;44.06;99798.06;110229;1251;20821;-40
2023/04/13 08:13:28;;;;;;;;;17.00;16.00;;;;;20.43;44.01;99799.36;110224;1251;20002;-40
2023/04/13 08:15:56;;;;;;;;;17.00;17.00;;;;;20.44;43.78;99799.24;110218;1264;20067;-40
2023/04/13 08:18:25;;;;;;;;;16.00;16.00;;;;;20.42;43.40;99799.86;110234;1264;19443;-40
2023/04/13 08:20:53;;;;;;;;;17.00;17.00;;;;;20.33;42.74;99804.19;110211;1264;22911;-41
2023/04/13 08:23:21;;;;;;;;;20.00;17.00;;;;;20.28;42.36;99804.95;110196;1264;20216;-40
2023/04/13 08:25:49;;;;;;;;;17.00;16.00;;;;;20.28;41.97;99806.27;110191;1264;19538;-40
2023/04/13 08:28:16;;;;;;;;;19.00;17.50;;;;;20.29;41.81;99810.09;109870;1250;483729;-40
2023/04/13 08:30:44;;;;;;;;;23.00;21.00;;;;;20.23;41.42;99805.73;110203;1264;20284;-39
2023/04/13 08:33:12;;;;;;;;;21.00;20.00;;;;;20.25;41.01;99809.93;110243;1251;19035;-39
2023/04/13 08:35:39;;;;;;;;;20.00;19.33;;;;;20.23;40.80;99810.38;110196;1250;20146;-40
2023/04/13 08:38:07;;;;;;;;;20.00;17.00;;;;;20.23;40.67;99808.92;110274;1264;19053;-40
2023/04/13 08:40:35;;;;;;;;;21.50;19.50;;;;;20.23;40.31;99810.85;110246;1264;22206;-40
2023/04/13 08:43:03;;;;;;;;;19.00;16.00;;;;;20.22;40.39;99807.60;110182;1251;21565;-41
2023/04/13 08:45:30;;;;;;;;;24.00;22.00;;;;;20.20;40.27;99814.74;110232;1264;18825;-40
2023/04/13 08:47:57;;;;;;;;;23.00;20.00;;;;;20.21;40.11;99816.22;110211;1264;20703;-40
2023/04/13 08:50:25;;;;;;;;;17.00;16.00;;;;;20.24;40.16;99813.95;110220;1264;18521;-40
2023/04/13 08:52:54;;;;;;;;;19.00;16.00;;;;;20.23;39.98;99818.74;110198;1264;19695;-40
2023/04/13 08:55:21;;;;;;;;;19.00;18.00;;;;;20.27;40.28;99817.15;110267;1264;20683;-42
2023/04/13 08:57:49;;;;;;;;;21.00;19.00;;;;;20.30;40.08;99821.11;110269;1264;18566;-40
2023/04/13 09:00:17;;;;;;;;;21.50;20.00;;;;;20.26;40.25;99820.45;110251;1264;22486;-40
2023/04/13 09:02:47;;;;;;;;;19.50;19.50;;;;;20.19;40.30;99825.16;110182;1250;20709;-40
2023/04/13 09:05:15;;;;;;;;;16.50;16.00;;;;;20.16;39.99;99829.19;110213;1251;21411;-40
2023/04/13 09:07:43;;;;;;;;;19.00;17.67;;;;;20.11;40.14;99829.13;110202;1250;20205;-40
2023/04/13 09:10:15;;;;;;;;;21.00;16.00;;;;;20.14;40.29;99839.29;110195;1264;19331;-40
2023/04/13 09:12:42;;;;;;;;;16.00;16.00;;;;;20.09;40.18;99830.96;110224;1264;22719;-40
2023/04/13 09:15:10;;;;;;;;;16.00;16.00;;;;;20.15;40.21;99831.10;110284;1264;18690;-40
2023/04/13 09:17:37;;;;;;;;;17.00;16.00;;;;;20.14;39.99;99833.14;110250;1250;20752;-39
2023/04/13 09:20:09;;;;;;;;;17.00;14.00;;;;;20.16;40.00;99835.05;110159;1250;23319;-39
2023/04/13 09:22:36;;;;;;;;;18.00;17.00;;;;;20.09;39.82;99838.45;110170;1264;19158;-40
2023/04/13 09:25:04;;;;;;;;;17.00;17.00;;;;;20.14;39.89;99836.11;110169;1251;22753;-40
2023/04/13 09:27:32;;;;;;;;;16.00;14.00;;;;;20.23;39.97;99835.91;110237;1264;19919;-41
2023/04/13 09:30:00;;;;;;;;;16.50;15.00;;;;;20.25;40.18;99832.55;110261;1264;20052;-40
2023/04/13 09:32:27;;;;;;;;;13.50;13.00;;;;;20.24;39.95;99832.58;110216;1264;19890;-40
2023/04/13 09:34:55;;;;;;;;;21.00;17.00;;;;;20.26;40.15;99830.44;110250;1264;19953;-39
2023/04/13 09:37:23;;;;;;;;;17.00;16.00;;;;;20.23;39.76;99832.86;110258;1264;22702;-40
2023/04/13 09:39:50;;;;;;;;;19.00;17.00;;;;;20.25;39.81;99827.52;110275;1250;20718;-39
2023/04/13 09:42:18;;;;;;;;;17.00;17.00;;;;;20.22;39.67;99829.04;110265;1251;20042;-39
2023/04/13 09:44:45;;;;;;;;;16.00;14.00;;;;;20.12;39.36;99829.28;110282;1264;22177;-39
2023/04/13 09:47:13;;;;;;;;;13.00;13.00;;;;;20.18;39.45;99836.23;110252;1264;19349;-39
2023/04/13 09:49:40;;;;;;;;;14.00;13.00;;;;;20.18;39.26;99836.38;110249;1251;19892;-40
2023/04/13 09:52:08;;;;;;;;;14.00;14.00;;;;;20.16;39.35;99833.50;110228;1264;18598;-39
2023/04/13 09:54:35;;;;;;;;;16.00;14.00;;;;;20.13;39.39;99831.71;110177;1250;20786;-40
2023/04/13 09:57:03;;;;;;;;;16.00;13.00;;;;;20.19;39.69;99829.17;110209;1250;22357;-40
2023/04/13 09:59:31;;;;;;;;;16.00;14.00;;;;;20.16;39.74;99827.75;110334;1250;20275;-39
2023/04/13 10:01:58;;;;;;;;;20.00;17.00;;;;;20.15;39.59;99829.13;110204;1264;20675;-39
2023/04/13 10:04:26;;;;;;;;;19.00;17.00;;;;;19.92;39.04;99831.30;110190;1257;18669;-40
2023/04/13 10:06:53;;;;;;;;;17.50;16.50;;;;;19.91;39.15;99827.82;110195;1264;22098;-40
2023/04/13 10:09:21;;;;;;;;;19.00;19.00;;;;;19.88;38.78;99827.53;110195;1264;20749;-40
2023/04/13 10:11:48;;;;;;;;;16.00;15.00;;;;;19.63;38.49;99830.27;110236;1264;20279;-39
2023/04/13 10:14:16;;;;;;;;;14.50;13.50;;;;;19.46;38.23;99827.77;110234;1264;20139;-39
2023/04/13 10:16:43;;;;;;;;;17.00;15.50;;;;;19.50;37.90;99826.85;110155;1264;19351;-40
2023/04/13 10:19:10;;;;;;;;;19.00;16.00;;;;;19.49;37.71;99823.87;110188;1264;19934;-44
2023/04/13 10:21:38;;;;;;;;;15.00;15.00;;;;;19.54;37.45;99821.09;110180;1250;18663;-40
2023/04/13 10:24:06;;;;;;;;;14.00;12.50;;;;;19.66;37.15;99819.89;110135;1264;22219;-42
2023/04/13 10:26:34;;;;;;;;;13.00;13.00;;;;;19.68;37.12;99822.33;110200;1264;19089;-40
2023/04/13 10:29:02;;;;;;;;;13.00;13.00;;;;;19.61;36.99;99822.70;110106;1250;23448;-40
2023/04/13 10:31:29;;;;;;;;;15.00;13.00;;;;;19.65;36.93;99824.39;110135;1250;19425;-40
2023/04/13 10:33:57;;;;;;;;;16.00;15.00;;;;;19.75;36.80;99816.59;110117;1250;20051;-39
2023/04/13 10:36:25;;;;;;;;;14.00;13.00;;;;;19.75;37.07;99816.50;110135;1264;20041;-39
2023/04/13 10:38:52;;;;;;;;;13.00;13.00;;;;;19.80;36.98;99817.95;110148;1251;20596;-39
2023/04/13 10:41:19;;;;;;;;;16.00;14.00;;;;;19.76;36.56;99821.04;110218;1264;19926;-40
2023/04/13 10:43:47;;;;;;;;;12.00;12.00;;;;;19.77;36.82;99823.47;110232;1250;21114;-39
2023/04/13 10:46:15;;;;;;;;;16.00;13.00;;;;;19.88;36.66;99820.84;110227;1250;20904;-40
2023/04/13 10:48:42;;;;;;;;;16.50;16.50;;;;;19.74;36.27;99824.86;110203;1251;20005;-41
2023/04/13 10:51:10;;;;;;;;;12.00;12.00;;;;;19.49;35.92;99831.77;110235;1251;20072;-41
2023/04/13 10:53:37;;;;;;;;;15.00;15.00;;;;;19.60;36.03;99827.77;110196;1264;22608;-40
2023/04/13 10:56:05;;;;;;;;;12.00;10.00;;;;;19.58;35.74;99835.58;110201;1264;20288;-39
2023/04/13 10:58:33;;;;;;;;;12.50;12.50;;;;;19.51;35.46;99833.76;110241;1251;18731;-41
2023/04/13 11:01:02;;;;;;;;;10.00;10.00;;;;;19.61;35.42;99836.08;110185;1264;20807;-40
2023/04/13 11:03:29;;;;;;;;;10.00;10.00;;;;;19.73;35.31;99840.75;110211;1264;19794;-40
2023/04/13 11:05:57;;;;;;;;;13.00;13.00;;;;;19.60;34.81;99844.38;110208;1264;19938;-41
2023/04/13 11:08:26;;;;;;;;;12.00;10.00;;;;;19.61;34.79;99844.23;110233;1264;19319;-40
2023/04/13 11:10:54;;;;;;;;;13.00;12.00;;;;;19.63;34.80;99851.09;110231;1264;18588;-41
2023/04/13 11:13:23;;;;;;;;;12.00;12.00;;;;;19.60;35.40;99849.15;110201;1264;20177;-41
2023/04/13 11:15:52;;;;;;;;;10.00;10.00;;;;;19.55;35.12;99845.71;110241;1264;22299;-40
2023/04/13 11:18:20;;;;;;;;;10.00;10.00;;;;;19.61;35.24;99844.31;110263;1264;19892;-40
2023/04/13 11:20:47;;;;;;;;;18.00;18.00;;;;;19.72;35.69;99841.79;110208;1264;20005;-39